Time;durP1;ratioP1;P1;durP2;ratioP2;P2;SDS_P1;SDS_P2;PMS_P1;PMS_P2;Temp;Humidity;BMP_temperature;BMP_pressure;BME280_temperature;BME280_humidity;BME280_pressure;Samples;Min_cycle;Max_cycle;Signal;HPM_P1;HPM_P2
2022/12/19 00:00:48;;;;;;;56.43;22.43;;;-9.40;99.90;;;;;;5053267;28;20086;-82
2022/12/19 00:03:14;;;;;;;69.37;24.23;;;-9.40;99.90;;;;;;5053287;28;20495;-77
2022/12/19 00:05:41;;;;;;;74.90;24.07;;;-9.40;99.90;;;;;;5051939;28;20029;-81
2022/12/19 00:08:14;;;;;;;49.57;21.17;;;-9.50;99.90;;;;;;5053160;28;20017;-81
2022/12/19 00:10:40;;;;;;;60.57;23.07;;;-9.60;99.90;;;;;;5053178;28;20037;-77
2022/12/19 00:13:05;;;;;;;58.67;21.17;;;-9.60;99.90;;;;;;5051856;28;20113;-77
2022/12/19 00:15:33;;;;;;;60.80;24.20;;;-9.70;99.90;;;;;;5051740;28;20017;-77
2022/12/19 00:17:58;;;;;;;57.53;24.33;;;-9.80;99.90;;;;;;5051327;28;20021;-78
2022/12/19 00:20:24;;;;;;;57.33;22.80;;;-9.80;99.90;;;;;;5051482;28;20064;-77
2022/12/19 00:22:49;;;;;;;57.20;22.33;;;-9.90;99.90;;;;;;5051789;28;20029;-82
2022/12/19 00:25:15;;;;;;;54.33;23.03;;;-9.90;99.90;;;;;;5052899;28;20028;-82
2022/12/19 00:27:40;;;;;;;68.90;24.73;;;-9.90;99.90;;;;;;5053054;28;20120;-78
2022/12/19 00:30:06;;;;;;;69.30;26.20;;;-10.00;99.90;;;;;;5051438;28;20383;-77
2022/12/19 00:32:32;;;;;;;64.87;25.47;;;-10.00;99.90;;;;;;5051649;28;20063;-77
2022/12/19 00:34:58;;;;;;;61.63;26.13;;;-10.00;99.90;;;;;;5051545;28;20056;-77
2022/12/19 00:37:23;;;;;;;70.47;24.50;;;-10.20;99.90;;;;;;5053045;28;20025;-82
2022/12/19 00:39:49;;;;;;;66.40;26.80;;;-10.20;99.90;;;;;;5051567;28;20071;-82
2022/12/19 00:42:15;;;;;;;45.77;23.80;;;-10.30;99.90;;;;;;5052760;28;20025;-81
2022/12/19 00:44:40;;;;;;;59.60;24.80;;;-10.30;99.90;;;;;;5051427;28;20033;-81
2022/12/19 00:47:06;;;;;;;83.00;28.17;;;-10.30;99.90;;;;;;5052851;28;20017;-81
2022/12/19 00:49:31;;;;;;;71.27;26.47;;;-10.30;99.90;;;;;;5051501;28;20024;-81
2022/12/19 00:51:58;;;;;;;55.77;22.77;;;-10.30;99.90;;;;;;5052721;28;20037;-81
2022/12/19 00:54:24;;;;;;;65.00;25.13;;;-10.20;99.90;;;;;;5052644;28;20109;-82
2022/12/19 00:56:49;;;;;;;62.30;25.23;;;-10.20;99.90;;;;;;5052825;28;20537;-77
2022/12/19 00:59:15;;;;;;;65.90;26.37;;;-10.20;99.90;;;;;;5052836;28;20363;-81
2022/12/19 01:01:41;;;;;;;47.57;19.17;;;-10.30;99.90;;;;;;5052657;28;20052;-82
2022/12/19 01:04:11;;;;;;;57.53;23.50;;;-10.20;99.90;;;;;;5052648;28;20025;-77
2022/12/19 01:06:37;;;;;;;58.30;24.37;;;-10.30;99.90;;;;;;5051347;28;20067;-82
2022/12/19 01:09:03;;;;;;;58.80;22.87;;;-10.20;99.90;;;;;;5052698;28;20036;-81
2022/12/19 01:14:16;;;;;;;63.63;23.70;;;-10.30;99.90;;;;;;5052865;28;20398;-77
2022/12/19 01:16:42;;;;;;;52.23;21.03;;;-10.30;99.90;;;;;;5051078;28;20017;-82
2022/12/19 01:19:07;;;;;;;56.87;21.67;;;-10.40;99.90;;;;;;5052430;28;20573;-81
2022/12/19 01:21:34;;;;;;;72.60;25.53;;;-10.40;99.90;;;;;;5052608;28;20406;-78
2022/12/19 01:24:01;;;;;;;55.20;22.23;;;-10.40;99.90;;;;;;5051161;28;20013;-77
2022/12/19 01:26:26;;;;;;;78.53;28.10;;;-10.40;99.90;;;;;;5050992;28;20025;-77
2022/12/19 01:28:52;;;;;;;83.77;24.90;;;-10.50;99.90;;;;;;5051143;28;20116;-77
2022/12/19 01:31:17;;;;;;;60.17;23.83;;;-10.50;99.90;;;;;;5053831;28;20106;-77
2022/12/19 01:33:43;;;;;;;60.10;22.37;;;-10.50;99.90;;;;;;5054828;28;20047;-81
2022/12/19 01:36:09;;;;;;;63.10;25.67;;;-10.50;99.90;;;;;;5056001;28;20075;-77
2022/12/19 01:38:35;;;;;;;63.70;27.30;;;-10.60;99.90;;;;;;5054776;28;20025;-77
2022/12/19 01:41:02;;;;;;;78.67;27.33;;;-10.60;99.90;;;;;;5051189;28;20476;-77
2022/12/19 01:43:29;;;;;;;81.60;27.73;;;-10.70;99.90;;;;;;5034699;28;20364;-77
2022/12/19 01:46:01;;;;;;;66.87;28.93;;;-10.70;99.90;;;;;;5035750;28;20045;-82
2022/12/19 01:48:37;;;;;;;64.10;24.47;;;-10.70;99.90;;;;;;5035976;28;20511;-81
2022/12/19 01:51:12;;;;;;;67.30;25.27;;;-10.70;99.90;;;;;;5034337;28;20095;-77
2022/12/19 01:53:44;;;;;;;69.83;24.53;;;-10.70;99.90;;;;;;5034837;28;20029;-78
2022/12/19 01:56:10;;;;;;;71.03;28.27;;;-10.70;99.90;;;;;;5035686;28;20062;-77
2022/12/19 01:58:40;;;;;;;61.07;24.53;;;-10.80;99.90;;;;;;5034471;28;20018;-77
2022/12/19 02:01:06;;;;;;;48.33;20.87;;;-10.80;99.90;;;;;;5035574;28;20471;-82
2022/12/19 02:03:35;;;;;;;61.13;22.77;;;-10.80;99.90;;;;;;5035625;28;20021;-77
2022/12/19 02:06:04;;;;;;;49.27;21.93;;;-10.80;99.90;;;;;;5034192;28;20017;-81
2022/12/19 02:08:31;;;;;;;67.90;23.63;;;-10.80;99.90;;;;;;5035628;28;20013;-77
2022/12/19 02:10:56;;;;;;;51.10;23.13;;;-10.80;99.90;;;;;;5035273;28;20048;-81
2022/12/19 02:13:23;;;;;;;54.03;23.20;;;-10.80;99.90;;;;;;5034227;28;20021;-77
2022/12/19 02:15:51;;;;;;;51.67;20.73;;;-10.80;99.90;;;;;;5039067;28;20093;-82
2022/12/19 02:18:33;;;;;;;51.77;20.67;;;-10.80;99.90;;;;;;5041417;28;20022;-82
2022/12/19 02:21:20;;;;;;;59.60;22.95;;;-10.80;99.90;;;;;;5040526;28;20052;-77
2022/12/19 02:24:17;;;;;;;61.10;22.13;;;-10.80;99.90;;;;;;5042223;28;20029;-81
2022/12/19 02:26:56;;;;;;;42.13;19.03;;;-10.80;99.90;;;;;;5033900;28;20124;-77
2022/12/19 02:29:36;;;;;;;53.60;22.33;;;-10.80;99.90;;;;;;5033749;28;20029;-81
2022/12/19 02:32:22;;;;;;;55.13;20.47;;;-10.80;99.90;;;;;;5033735;28;20029;-82
2022/12/19 02:35:03;;;;;;;48.43;24.80;;;-10.80;99.90;;;;;;5035137;28;20028;-78
2022/12/19 02:38:09;;;;;;;54.60;21.40;;;-10.90;99.90;;;;;;5033623;28;20125;-77
2022/12/19 02:41:02;;;;;;;47.17;20.03;;;-10.90;99.90;;;;;;5048514;28;20371;-82
2022/12/19 02:43:31;;;;;;;46.17;19.17;;;-10.90;99.90;;;;;;5054865;28;20527;-82
2022/12/19 02:45:58;;;;;;;47.67;19.83;;;-10.90;99.90;;;;;;5054642;28;20457;-77
2022/12/19 02:48:25;;;;;;;55.60;23.47;;;-10.80;99.90;;;;;;5054749;28;20025;-77
2022/12/19 02:50:51;;;;;;;50.80;20.87;;;-10.80;99.90;;;;;;5053200;28;20079;-81
2022/12/19 02:53:17;;;;;;;55.77;24.57;;;-10.80;99.90;;;;;;5053209;28;20044;-80
2022/12/19 02:55:50;;;;;;;51.00;20.80;;;-10.80;99.90;;;;;;5054541;28;20060;-82
2022/12/19 02:58:18;;;;;;;59.90;22.20;;;-10.80;99.90;;;;;;5054468;28;20048;-81
2022/12/19 03:01:05;;;;;;;41.30;20.97;;;-10.80;99.90;;;;;;5054502;28;20463;-81
2022/12/19 03:04:02;;;;;;;43.07;19.57;;;-10.80;99.90;;;;;;5053112;28;20027;-81
2022/12/19 03:06:47;;;;;;;47.50;22.07;;;-10.80;99.90;;;;;;5051106;28;20033;-77
2022/12/19 03:09:25;;;;;;;45.77;20.73;;;-10.80;99.90;;;;;;5053052;28;20138;-82
2022/12/19 03:12:00;;;;;;;51.30;21.30;;;-10.90;99.90;;;;;;5054208;28;20478;-81
2022/12/19 03:14:27;;;;;;;58.87;22.83;;;-10.90;99.90;;;;;;5054201;28;20028;-77
2022/12/19 03:16:52;;;;;;;48.77;20.57;;;-10.90;99.90;;;;;;5052487;28;20017;-81
2022/12/19 03:19:18;;;;;;;64.30;22.07;;;-11.00;99.90;;;;;;5053021;28;20386;-82
2022/12/19 03:21:46;;;;;;;56.83;23.37;;;-11.00;99.90;;;;;;5054032;28;20025;-77
2022/12/19 03:24:13;;;;;;;61.57;22.00;;;-11.00;99.90;;;;;;5052764;28;20025;-81
2022/12/19 03:26:48;;;;;;;55.57;22.33;;;-11.00;99.90;;;;;;5053855;28;20017;-81
2022/12/19 03:29:36;;;;;;;50.60;19.80;;;-11.00;99.90;;;;;;5052716;28;20112;-77
2022/12/19 03:32:05;;;;;;;55.83;21.03;;;-11.00;99.90;;;;;;5052210;28;20041;-77
2022/12/19 03:34:39;;;;;;;61.67;21.93;;;-10.90;99.90;;;;;;5052830;28;20111;-81
2022/12/19 03:37:09;;;;;;;56.20;22.83;;;-10.90;99.90;;;;;;5053544;28;20021;-76
2022/12/19 03:39:36;;;;;;;55.80;21.80;;;-10.90;99.90;;;;;;5052499;28;20490;-77
2022/12/19 03:44:50;;;;;;;50.30;21.43;;;-11.00;99.90;;;;;;5054062;28;20051;-78
2022/12/19 03:47:54;;;;;;;55.07;21.03;;;-11.00;99.90;;;;;;5052221;28;20029;-77
2022/12/19 03:50:22;;;;;;;63.77;23.80;;;-11.00;99.90;;;;;;5052795;28;20040;-77
2022/12/19 03:53:18;;;;;;;55.63;20.90;;;-11.00;99.90;;;;;;5051589;28;20498;-81
2022/12/19 03:55:48;;;;;;;55.40;21.17;;;-11.00;99.90;;;;;;5053491;28;20360;-76
2022/12/19 03:58:27;;;;;;;49.50;21.10;;;-11.10;99.90;;;;;;5053182;28;20092;-81
2022/12/19 04:00:54;;;;;;;39.57;14.83;;;-11.10;99.90;;;;;;5053445;28;20035;-81
2022/12/19 04:03:21;;;;;;;53.13;23.50;;;-11.10;99.90;;;;;;5053235;28;20025;-77
2022/12/19 04:05:48;;;;;;;55.53;19.70;;;-11.10;99.90;;;;;;5051831;28;20043;-77
2022/12/19 04:08:14;;;;;;;52.27;21.57;;;-11.10;99.90;;;;;;5051806;28;20025;-77
2022/12/19 04:10:50;;;;;;;50.23;19.93;;;-11.10;99.90;;;;;;5051856;28;20148;-81
2022/12/19 04:13:21;;;;;;;42.27;18.70;;;-11.10;99.90;;;;;;5051498;28;20486;-81
2022/12/19 04:16:04;;;;;;;57.40;20.50;;;-11.00;99.90;;;;;;5053356;28;20100;-77
2022/12/19 04:18:31;;;;;;;39.15;16.30;;;-11.00;99.90;;;;;;5053230;28;20082;-77
2022/12/19 04:21:14;;;;;;;51.10;19.63;;;-11.00;99.90;;;;;;5053126;28;20045;-78
2022/12/19 04:23:47;;;;;;;50.40;21.93;;;-11.10;99.90;;;;;;5052037;28;20120;-77
2022/12/19 04:26:17;;;;;;;54.07;21.23;;;-11.00;99.90;;;;;;5052466;28;20017;-77
2022/12/19 04:28:55;;;;;;;50.20;18.77;;;-11.00;99.90;;;;;;5051643;28;20028;-82
2022/12/19 04:31:22;;;;;;;51.10;19.20;;;-11.00;99.90;;;;;;5052974;28;20025;-81
2022/12/19 04:33:47;;;;;;;43.33;18.60;;;-11.00;99.90;;;;;;5051638;28;20029;-77
2022/12/19 04:36:13;;;;;;;52.97;21.27;;;-11.10;99.90;;;;;;5051714;28;20385;-81
2022/12/19 04:38:39;;;;;;;49.97;20.40;;;-11.00;99.90;;;;;;5052967;28;20039;-81
2022/12/19 04:41:04;;;;;;;43.10;18.87;;;-10.90;99.90;;;;;;5053007;28;20075;-77
2022/12/19 04:43:30;;;;;;;53.87;18.97;;;-10.90;99.90;;;;;;5052857;28;20036;-77
2022/12/19 04:45:55;;;;;;;52.40;20.67;;;-10.90;99.90;;;;;;5051433;28;20444;-81
2022/12/19 04:48:21;;;;;;;54.47;20.00;;;-10.90;99.90;;;;;;5051566;28;20013;-80
2022/12/19 04:50:47;;;;;;;46.83;19.67;;;-10.90;99.90;;;;;;5051569;28;20044;-77
2022/12/19 04:53:12;;;;;;;56.53;19.97;;;-10.90;99.90;;;;;;5051457;28;20169;-82
2022/12/19 04:55:39;;;;;;;47.80;19.37;;;-10.90;99.90;;;;;;5052872;28;20025;-77
2022/12/19 04:58:06;;;;;;;47.73;19.53;;;-10.90;99.90;;;;;;5051391;28;20544;-81
2022/12/19 05:00:33;;;;;;;44.33;19.37;;;-10.90;99.90;;;;;;5051484;28;20029;-77
2022/12/19 05:02:58;;;;;;;55.80;19.90;;;-10.90;99.90;;;;;;5052638;28;20021;-77
2022/12/19 05:05:24;;;;;;;45.40;19.80;;;-10.90;99.90;;;;;;5054922;28;20540;-77
2022/12/19 05:07:50;;;;;;;53.93;21.97;;;-10.90;99.90;;;;;;5055430;28;20604;-77
2022/12/19 05:10:16;;;;;;;53.93;21.93;;;-11.00;99.90;;;;;;5056435;28;20124;-81
2022/12/19 05:12:42;;;;;;;47.97;20.20;;;-11.00;99.90;;;;;;5055280;28;20533;-77
2022/12/19 05:15:08;;;;;;;53.20;21.47;;;-11.00;99.90;;;;;;5056420;28;20017;-81
2022/12/19 05:17:34;;;;;;;57.07;20.40;;;-11.00;99.90;;;;;;5056576;28;20097;-77
2022/12/19 05:19:59;;;;;;;53.20;19.73;;;-11.10;99.90;;;;;;5054669;28;20132;-77
2022/12/19 05:22:25;;;;;;;43.43;19.10;;;-11.10;99.90;;;;;;5056356;28;20033;-77
2022/12/19 05:24:50;;;;;;;53.37;21.27;;;-11.10;99.90;;;;;;5056166;28;20402;-77
2022/12/19 05:27:16;;;;;;;58.47;21.30;;;-11.10;99.90;;;;;;5054908;28;20489;-81
2022/12/19 05:29:41;;;;;;;50.60;19.57;;;-11.10;99.90;;;;;;5056089;28;20065;-77
2022/12/19 05:32:07;;;;;;;52.17;20.37;;;-11.10;99.90;;;;;;5055907;28;20037;-77
2022/12/19 05:34:33;;;;;;;43.00;19.03;;;-11.20;99.90;;;;;;5055984;28;20534;-81
2022/12/19 05:36:58;;;;;;;51.17;20.60;;;-11.10;99.90;;;;;;5056172;28;20017;-81
2022/12/19 05:39:24;;;;;;;47.53;19.90;;;-11.20;99.90;;;;;;5054555;28;20037;-76
2022/12/19 05:41:49;;;;;;;37.93;18.93;;;-11.20;99.90;;;;;;5055901;28;20170;-81
2022/12/19 05:44:15;;;;;;;53.10;17.80;;;-11.10;99.90;;;;;;5055839;28;20036;-77
2022/12/19 05:46:41;;;;;;;47.37;17.97;;;-11.20;99.90;;;;;;5054566;28;20025;-77
2022/12/19 05:49:06;;;;;;;47.23;18.93;;;-11.10;99.90;;;;;;5054466;28;20116;-76
2022/12/19 05:51:32;;;;;;;47.50;19.03;;;-11.10;99.90;;;;;;5055982;28;20391;-81
2022/12/19 05:53:59;;;;;;;50.67;19.10;;;-11.10;99.90;;;;;;5056169;28;20071;-78
2022/12/19 05:56:25;;;;;;;49.43;20.80;;;-11.00;99.90;;;;;;5055657;28;20028;-81
2022/12/19 05:58:50;;;;;;;51.57;20.13;;;-11.00;99.90;;;;;;5055282;28;20532;-80
2022/12/19 06:01:26;;;;;;;48.20;20.83;;;-11.00;99.90;;;;;;5053996;28;20036;-81
2022/12/19 06:03:53;;;;;;;60.87;23.57;;;-11.00;99.90;;;;;;5055526;28;20029;-80
2022/12/19 06:06:21;;;;;;;53.80;23.30;;;-11.00;99.90;;;;;;5055908;28;20017;-76
2022/12/19 06:08:47;;;;;;;49.93;20.60;;;-11.10;99.90;;;;;;5054562;28;20052;-81
2022/12/19 06:11:13;;;;;;;51.00;22.07;;;-11.10;99.90;;;;;;5055058;28;20075;-76
2022/12/19 06:13:40;;;;;;;47.07;18.47;;;-11.20;99.90;;;;;;5053680;28;20028;-77
2022/12/19 06:16:11;;;;;;;48.20;21.43;;;-11.20;99.90;;;;;;5054050;28;20441;-75
2022/12/19 06:18:38;;;;;;;48.60;23.40;;;-11.20;99.90;;;;;;5034556;28;20029;-81
2022/12/19 06:21:05;;;;;;;50.70;21.70;;;-11.20;99.90;;;;;;5035932;28;20053;-80
2022/12/19 06:23:33;;;;;;;49.93;24.53;;;-11.20;99.90;;;;;;5035408;28;20056;-82
2022/12/19 06:26:00;;;;;;;59.20;23.80;;;-11.20;99.90;;;;;;5035871;28;20045;-80
2022/12/19 06:28:27;;;;;;;42.63;22.30;;;-11.10;99.90;;;;;;5035373;28;20056;-76
2022/12/19 06:31:00;;;;;;;47.53;20.43;;;-11.10;99.90;;;;;;5033817;28;20034;-77
2022/12/19 06:33:27;;;;;;;41.23;17.47;;;-11.10;99.90;;;;;;5044257;28;20074;-76
2022/12/19 06:36:06;;;;;;;40.60;16.87;;;-11.10;99.90;;;;;;5054408;28;20074;-75
2022/12/19 06:38:33;;;;;;;41.10;15.57;;;-11.10;99.90;;;;;;5056744;28;20493;-81
2022/12/19 06:43:43;;;;;;;321.53;119.07;;;-11.10;99.90;;;;;;5054963;28;20090;-81
2022/12/19 06:46:09;;;;;;;122.70;46.87;;;-11.00;99.90;;;;;;5055474;28;20075;-80
2022/12/19 06:48:35;;;;;;;59.90;22.27;;;-11.00;99.90;;;;;;5055003;28;20397;-80
2022/12/19 06:51:01;;;;;;;73.63;30.13;;;-11.00;99.90;;;;;;5048199;28;20032;-80
2022/12/19 06:53:26;;;;;;;56.63;23.67;;;-11.00;99.90;;;;;;5052052;28;20025;-80
2022/12/19 06:55:55;;;;;;;66.37;23.37;;;-11.00;99.90;;;;;;5053045;28;20037;-80
2022/12/19 06:58:20;;;;;;;113.80;44.73;;;-10.90;99.90;;;;;;5053873;28;20063;-79
2022/12/19 07:00:46;;;;;;;108.33;41.40;;;-10.80;99.90;;;;;;5052349;28;20029;-80
2022/12/19 07:03:14;;;;;;;101.33;40.63;;;-10.80;99.90;;;;;;5052950;28;20075;-76
2022/12/19 07:05:40;;;;;;;60.43;24.43;;;-10.80;99.90;;;;;;5046040;28;20024;-77
2022/12/19 07:08:08;;;;;;;93.83;42.70;;;-10.80;99.90;;;;;;5050707;28;20027;-75
2022/12/19 07:10:33;;;;;;;132.00;54.50;;;-10.80;99.90;;;;;;5052208;28;20470;-80
2022/12/19 07:12:59;;;;;;;78.57;33.10;;;-10.80;99.90;;;;;;5052280;28;20025;-79
2022/12/19 07:15:25;;;;;;;69.53;29.27;;;-10.80;99.90;;;;;;5052217;28;20057;-79
2022/12/19 07:17:51;;;;;;;119.67;46.10;;;-10.70;99.90;;;;;;5053133;28;20460;-80
2022/12/19 07:20:19;;;;;;;95.10;37.00;;;-10.60;99.90;;;;;;5049266;28;20061;-80
2022/12/19 07:22:46;;;;;;;114.07;48.13;;;-10.60;99.90;;;;;;5053470;28;20053;-77
2022/12/19 07:25:12;;;;;;;114.57;51.03;;;-10.50;99.90;;;;;;5053133;28;20024;-76
2022/12/19 07:27:37;;;;;;;84.60;35.07;;;-10.50;99.90;;;;;;5052198;28;20043;-80
2022/12/19 07:30:04;;;;;;;94.77;42.00;;;-10.40;99.90;;;;;;5053495;28;20028;-76
2022/12/19 07:32:30;;;;;;;89.47;34.43;;;-10.30;99.90;;;;;;5051493;28;20498;-80
2022/12/19 07:34:56;;;;;;;92.53;39.30;;;-10.20;99.90;;;;;;5053227;28;20067;-81
2022/12/19 07:37:21;;;;;;;107.40;48.23;;;-10.10;99.90;;;;;;5053591;28;20123;-81
2022/12/19 07:39:48;;;;;;;62.57;25.80;;;-10.00;99.90;;;;;;5053627;28;20378;-76
2022/12/19 07:42:14;;;;;;;83.50;37.73;;;-9.90;99.90;;;;;;5051999;28;20479;-76
2022/12/19 07:44:40;;;;;;;81.60;33.47;;;-9.80;99.90;;;;;;5051412;28;20059;-76
2022/12/19 07:47:06;;;;;;;123.00;48.80;;;-9.70;99.90;;;;;;5052428;28;20029;-80
2022/12/19 07:49:32;;;;;;;121.10;50.37;;;-9.70;99.90;;;;;;5053807;28;20025;-76
2022/12/19 07:51:58;;;;;;;82.70;38.50;;;-9.50;99.90;;;;;;5052233;28;20505;-80
2022/12/19 07:54:23;;;;;;;73.83;35.30;;;-9.40;99.90;;;;;;5053192;28;20120;-80
2022/12/19 07:56:49;;;;;;;91.70;43.63;;;-9.30;99.90;;;;;;5050424;28;20084;-80
2022/12/19 07:59:15;;;;;;;98.00;43.07;;;-9.30;99.90;;;;;;5049929;28;20017;-77
2022/12/19 08:01:40;;;;;;;87.73;37.47;;;-9.30;99.90;;;;;;5050598;28;20541;-80
2022/12/19 08:04:06;;;;;;;63.60;30.73;;;-9.20;99.90;;;;;;5049961;28;20014;-80
2022/12/19 08:06:31;;;;;;;70.03;30.67;;;-9.20;99.90;;;;;;5051671;28;20025;-77
2022/12/19 08:08:57;;;;;;;60.37;29.87;;;-9.10;99.90;;;;;;5050145;28;20020;-80
2022/12/19 08:11:26;;;;;;;60.87;27.63;;;-9.00;99.90;;;;;;5052981;28;20375;-77
2022/12/19 08:13:53;;;;;;;66.33;26.57;;;-8.80;99.90;;;;;;5052058;28;20028;-80
2022/12/19 08:16:19;;;;;;;58.03;26.57;;;-8.70;99.90;;;;;;5053189;28;20028;-80
2022/12/19 08:18:45;;;;;;;59.43;24.97;;;-8.60;99.90;;;;;;5053350;28;20064;-81
2022/12/19 08:21:11;;;;;;;56.80;23.80;;;-8.50;99.90;;;;;;5053346;28;20175;-76
2022/12/19 08:23:40;;;;;;;49.70;23.07;;;-8.40;99.90;;;;;;5051970;28;20484;-76
2022/12/19 08:26:08;;;;;;;53.97;24.90;;;-8.40;99.90;;;;;;5053262;28;20021;-76
2022/12/19 08:28:35;;;;;;;75.97;33.40;;;-8.30;99.90;;;;;;5051751;28;20486;-81
2022/12/19 08:31:10;;;;;;;106.93;42.57;;;-8.10;99.90;;;;;;5053014;28;20037;-77
2022/12/19 08:33:35;;;;;;;75.30;31.30;;;-8.00;99.90;;;;;;5052229;28;20056;-76
2022/12/19 08:36:11;;;;;;;59.27;27.57;;;-7.90;99.80;;;;;;5051924;28;20082;-77
2022/12/19 08:38:40;;;;;;;48.60;24.50;;;-7.90;98.30;;;;;;5052498;28;20116;-76
2022/12/19 08:41:06;;;;;;;63.87;28.07;;;-7.80;97.50;;;;;;5055900;28;20385;-80
2022/12/19 08:43:32;;;;;;;59.10;26.33;;;-7.70;97.10;;;;;;5055719;28;20025;-80
2022/12/19 08:45:58;;;;;;;61.03;28.43;;;-7.60;97.30;;;;;;5057055;28;20029;-78
2022/12/19 08:48:25;;;;;;;66.60;28.03;;;-7.50;95.60;;;;;;5055732;28;20021;-77
2022/12/19 08:50:59;;;;;;;65.73;27.30;;;-7.50;93.90;;;;;;5056879;28;20021;-78
2022/12/19 08:53:27;;;;;;;62.53;26.80;;;-7.40;94.40;;;;;;5055735;28;20051;-78
2022/12/19 08:55:57;;;;;;;61.30;27.63;;;-7.30;94.70;;;;;;5056766;28;20025;-74
2022/12/19 08:58:24;;;;;;;67.93;30.30;;;-7.30;93.80;;;;;;5056837;28;20020;-74
2022/12/19 09:00:54;;;;;;;58.40;26.10;;;-7.20;93.40;;;;;;5056976;28;20048;-74
2022/12/19 09:03:21;;;;;;;57.40;26.87;;;-7.10;93.40;;;;;;5056701;28;20043;-78
2022/12/19 09:05:55;;;;;;;54.07;24.43;;;-7.10;93.70;;;;;;5056879;28;20017;-74
2022/12/19 09:08:20;;;;;;;57.67;25.73;;;-7.10;93.30;;;;;;5056742;28;20029;-74
2022/12/19 09:10:46;;;;;;;56.40;26.13;;;-7.00;92.30;;;;;;5056665;28;20032;-74
2022/12/19 09:13:11;;;;;;;66.47;28.27;;;-6.90;92.50;;;;;;5056609;28;20020;-78
2022/12/19 09:15:37;;;;;;;66.77;28.70;;;-6.80;92.50;;;;;;5056520;28;20017;-79
2022/12/19 09:18:03;;;;;;;68.13;32.23;;;-6.80;93.10;;;;;;5056412;28;20075;-75
2022/12/19 09:20:28;;;;;;;76.03;32.63;;;-6.70;92.90;;;;;;5056526;28;20049;-74
2022/12/19 09:22:54;;;;;;;81.90;35.33;;;-6.70;93.30;;;;;;5056080;28;20394;-74
2022/12/19 09:25:19;;;;;;;82.67;32.50;;;-6.60;92.90;;;;;;5056344;28;20028;-78
2022/12/19 09:27:45;;;;;;;68.83;31.90;;;-6.60;92.10;;;;;;5056305;28;20499;-78
2022/12/19 09:30:11;;;;;;;72.20;33.47;;;-6.60;92.10;;;;;;5056265;28;20064;-78
2022/12/19 09:32:37;;;;;;;67.40;28.13;;;-6.60;92.40;;;;;;5054862;28;20031;-78
2022/12/19 09:35:03;;;;;;;70.10;29.73;;;-6.60;93.10;;;;;;5054869;28;20120;-78
2022/12/19 09:37:29;;;;;;;76.60;33.57;;;-6.40;94.70;;;;;;5056087;28;20017;-78
2022/12/19 09:39:54;;;;;;;75.28;34.00;;;-6.30;94.00;;;;;;5056077;28;20071;-78
2022/12/19 09:42:49;;;;;;;89.03;39.60;;;-6.20;93.30;;;;;;5056102;28;20479;-78
2022/12/19 09:45:35;;;;;;;211.35;83.75;;;-6.20;92.00;;;;;;5055276;28;20039;-78
2022/12/19 09:48:01;;;;;;;312.65;123.10;;;-6.20;91.90;;;;;;5054643;28;20036;-78
2022/12/19 09:50:34;;;;;;;94.90;37.53;;;-6.10;92.80;;;;;;5054884;28;20064;-74
2022/12/19 09:53:12;;;;;;;135.23;57.10;;;-6.20;92.70;;;;;;5055925;28;20031;-74
2022/12/19 09:55:40;;;;;;;284.13;117.93;;;-6.10;93.20;;;;;;5054728;28;20027;-79
2022/12/19 09:58:15;;;;;;;230.10;104.30;;;-6.00;94.80;;;;;;5055719;28;20059;-74
2022/12/19 10:00:56;;;;;;;181.23;82.78;;;-5.90;95.30;;;;;;5055731;28;20368;-78
2022/12/19 10:03:27;;;;;;;95.93;47.95;;;-5.60;95.00;;;;;;5054507;28;20021;-74
2022/12/19 10:05:58;;;;;;;81.82;41.88;;;-5.50;94.20;;;;;;5054435;28;20033;-75
2022/12/19 10:08:30;;;;;;;89.60;43.13;;;-5.40;93.10;;;;;;5055604;28;20378;-78
2022/12/19 10:11:15;;;;;;;83.55;38.60;;;-5.30;92.80;;;;;;5054214;28;20143;-78
2022/12/19 10:13:59;;;;;;;77.75;33.58;;;-5.20;91.90;;;;;;5034206;28;20025;-74
2022/12/19 10:16:40;;;;;;;62.92;27.92;;;-5.10;91.50;;;;;;5039194;28;20020;-79
2022/12/19 10:19:12;;;;;;;60.80;31.15;;;-5.00;92.20;;;;;;5055085;28;20021;-79
2022/12/19 10:21:43;;;;;;;61.90;28.83;;;-4.90;92.40;;;;;;5043458;28;20079;-74
2022/12/19 10:24:20;;;;;;;64.53;28.35;;;-4.80;91.70;;;;;;5033786;28;20033;-74
2022/12/19 10:26:55;;;;;;;69.60;31.77;;;-4.80;91.20;;;;;;5034126;28;20036;-74
2022/12/19 10:30:00;;;;;;;73.40;32.92;;;-4.70;91.90;;;;;;5033785;28;20025;-74
2022/12/19 10:33:13;;;;;;;70.40;30.92;;;-4.70;92.90;;;;;;5032816;28;20037;-75
2022/12/19 10:35:44;;;;;;;64.88;31.08;;;-4.50;93.00;;;;;;5011917;28;20033;-79
2022/12/19 10:38:10;;;;;;;66.22;30.40;;;-4.50;91.50;;;;;;5035345;28;20018;-74
2022/12/19 10:40:47;;;;;;;62.20;29.20;;;-4.50;91.50;;;;;;5051307;28;20037;-74
2022/12/19 10:43:16;;;;;;;66.50;30.30;;;-4.40;91.80;;;;;;5053542;28;20029;-74
2022/12/19 10:45:46;;;;;;;72.18;30.40;;;-4.40;92.30;;;;;;5054635;28;20025;-74
2022/12/19 10:48:17;;;;;;;64.95;29.35;;;-4.30;92.40;;;;;;5053491;28;20581;-79
2022/12/19 10:50:43;;;;;;;64.55;30.17;;;-4.10;93.00;;;;;;5054605;28;20112;-75
2022/12/19 10:53:11;;;;;;;61.67;27.42;;;-4.00;92.40;;;;;;5053426;28;20032;-74
2022/12/19 10:55:50;;;;;;;58.75;27.83;;;-4.10;91.20;;;;;;5054706;28;20474;-79
2022/12/19 10:58:27;;;;;;;88.03;35.15;;;-4.20;91.70;;;;;;5054672;28;20017;-75
2022/12/19 11:01:01;;;;;;;78.65;34.70;;;-4.20;93.20;;;;;;5054413;28;20437;-78
2022/12/19 11:03:27;;;;;;;557.85;221.73;;;-4.20;94.80;;;;;;5054510;28;20045;-79
2022/12/19 11:05:55;;;;;;;1080.13;464.80;;;-4.20;96.90;;;;;;5054394;28;20389;-75
2022/12/19 11:08:27;;;;;;;986.65;421.98;;;-4.00;97.70;;;;;;5054510;28;20021;-79
2022/12/19 11:11:10;;;;;;;1067.78;455.88;;;-3.90;98.00;;;;;;5054272;28;20021;-78
2022/12/19 11:13:40;;;;;;;504.10;191.27;;;-3.80;98.10;;;;;;5054551;28;20045;-79
2022/12/19 11:16:07;;;;;;;717.08;292.25;;;-3.80;97.90;;;;;;5054090;28;20025;-75
2022/12/19 11:18:35;;;;;;;533.35;197.55;;;-3.80;98.20;;;;;;5054388;28;20113;-75
2022/12/19 11:21:12;;;;;;;724.75;294.88;;;-3.80;98.50;;;;;;5053889;28;20414;-79
2022/12/19 11:23:46;;;;;;;841.45;346.83;;;-3.70;99.00;;;;;;5052879;28;20025;-79
2022/12/19 11:26:31;;;;;;;406.77;142.63;;;-3.70;98.80;;;;;;5054005;28;20489;-79
2022/12/19 11:29:03;;;;;;;381.50;131.93;;;-3.70;98.50;;;;;;5054165;28;20037;-78
2022/12/19 11:31:29;;;;;;;635.28;249.43;;;-3.70;99.10;;;;;;5054131;28;20040;-79
2022/12/19 11:34:06;;;;;;;533.60;201.85;;;-3.80;99.90;;;;;;5053927;28;20074;-78
2022/12/19 11:36:48;;;;;;;403.58;148.60;;;-3.80;99.90;;;;;;5052736;28;20163;-79
2022/12/19 11:39:28;;;;;;;291.33;112.82;;;-3.90;99.90;;;;;;5052626;28;20064;-74
2022/12/19 11:42:17;;;;;;;111.13;48.17;;;-4.00;99.90;;;;;;5053921;28;20474;-79
2022/12/19 11:44:54;;;;;;;210.60;85.50;;;-4.00;99.90;;;;;;5053683;28;20115;-78
2022/12/19 11:47:47;;;;;;;81.28;35.97;;;-4.00;99.90;;;;;;5053779;28;20138;-75
2022/12/19 11:50:42;;;;;;;88.28;39.22;;;-4.00;99.90;;;;;;5053569;28;20017;-79
2022/12/19 11:53:22;;;;;;;147.52;57.50;;;-4.00;99.90;;;;;;5053789;28;20126;-75
2022/12/19 11:55:59;;;;;;;121.47;53.50;;;-3.90;99.90;;;;;;5053568;28;20017;-78
2022/12/19 11:58:28;;;;;;;160.35;63.55;;;-3.80;99.90;;;;;;5053666;28;20033;-75
2022/12/19 12:01:03;;;;;;;190.98;82.72;;;-3.80;99.90;;;;;;5053437;28;20441;-75
2022/12/19 12:03:42;;;;;;;132.13;59.15;;;-3.70;99.90;;;;;;5053653;28;20467;-75
2022/12/19 12:06:17;;;;;;;172.10;71.65;;;-3.60;99.90;;;;;;5053441;28;20023;-75
2022/12/19 12:09:04;;;;;;;180.52;82.53;;;-3.50;99.90;;;;;;5053364;28;20082;-79
2022/12/19 12:11:57;;;;;;;108.78;53.00;;;-3.50;99.90;;;;;;5051913;28;20386;-75
2022/12/19 12:14:49;;;;;;;118.65;56.72;;;-3.40;99.90;;;;;;5052747;28;20063;-79
2022/12/19 12:17:41;;;;;;;104.22;48.50;;;-3.30;99.90;;;;;;5053217;28;20477;-75
2022/12/19 12:20:22;;;;;;;96.50;43.17;;;-3.30;99.90;;;;;;5051800;28;20115;-79
2022/12/19 12:23:20;;;;;;;101.03;45.83;;;-3.30;99.90;;;;;;5053266;28;20033;-75
2022/12/19 12:25:57;;;;;;;79.10;39.03;;;-3.30;99.90;;;;;;5053110;28;20028;-75
2022/12/19 12:28:43;;;;;;;82.20;37.65;;;-3.30;99.90;;;;;;5053247;28;20029;-78
2022/12/19 12:31:45;;;;;;;84.25;36.92;;;-3.30;99.90;;;;;;5053177;28;20025;-79
2022/12/19 12:34:32;;;;;;;70.00;36.63;;;-3.30;99.90;;;;;;5051816;28;20026;-79
2022/12/19 12:37:07;;;;;;;78.57;35.95;;;-3.30;99.90;;;;;;5053071;28;20033;-75
2022/12/19 12:39:48;;;;;;;170.15;79.82;;;-3.20;99.90;;;;;;5052822;28;20108;-75
2022/12/19 12:42:43;;;;;;;90.32;43.35;;;-3.30;99.90;;;;;;5052990;28;20025;-79
2022/12/19 12:45:22;;;;;;;87.22;40.15;;;-3.30;99.90;;;;;;5053042;28;20052;-75